Time;durP1;ratioP1;P1;durP2;ratioP2;P2;SDS_P1;SDS_P2;PMS_P1;PMS_P2;Temp;Humidity;BMP_temperature;BMP_pressure;BME280_temperature;BME280_humidity;BME280_pressure;Samples;Min_cycle;Max_cycle;Signal;HPM_P1;HPM_P2
2024/03/13 00:04:17;;;;;;;76.15;31.58;;;;;;;4.59;93.77;100342.09;10174297;29;20055;-83
2024/03/13 00:09:20;;;;;;;74.78;33.90;;;;;;;4.67;93.52;100338.16;10167147;29;20055;-82
2024/03/13 00:14:26;;;;;;;76.93;33.15;;;;;;;4.62;93.35;100330.41;10174140;29;20055;-82
2024/03/13 00:19:30;;;;;;;77.28;32.53;;;;;;;4.51;93.64;100331.03;10177652;29;21286;-83
2024/03/13 00:24:34;;;;;;;76.35;32.83;;;;;;;4.48;93.86;100323.22;10183803;29;20126;-82
2024/03/13 00:29:38;;;;;;;70.28;30.17;;;;;;;4.46;93.80;100322.44;10166741;29;20058;-83
2024/03/13 00:34:44;;;;;;;76.35;33.08;;;;;;;4.34;94.69;100309.84;10177717;29;20087;-82
2024/03/13 00:39:48;;;;;;;77.72;32.42;;;;;;;4.28;95.61;100303.06;10164455;29;20058;-83
2024/03/13 00:44:52;;;;;;;77.50;32.20;;;;;;;4.31;95.21;100307.38;10169997;29;20485;-82
2024/03/13 00:49:57;;;;;;;70.80;31.48;;;;;;;4.24;95.11;100312.16;10173189;29;20055;-83
2024/03/13 00:55:00;;;;;;;78.45;34.40;;;;;;;4.18;95.15;100301.88;10170840;29;20130;-83
2024/03/13 01:00:04;;;;;;;78.40;31.27;;;;;;;4.23;94.53;100301.63;10172091;29;20054;-82
2024/03/13 01:05:09;;;;;;;82.47;31.38;;;;;;;4.00;96.54;100292.25;10169927;29;20134;-83
2024/03/13 01:10:13;;;;;;;75.78;32.90;;;;;;;4.03;96.00;100292.06;10171281;29;20056;-81
2024/03/13 01:15:16;;;;;;;78.55;33.38;;;;;;;4.12;94.88;100292.44;10173950;29;20250;-83
2024/03/13 01:20:21;;;;;;;79.03;34.78;;;;;;;4.10;94.89;100274.84;10170760;29;20114;-81
2024/03/13 01:25:24;;;;;;;78.88;34.78;;;;;;;3.99;95.52;100266.63;10168807;29;20063;-82
2024/03/13 01:30:29;;;;;;;81.97;34.17;;;;;;;4.01;95.16;100254.09;10153601;29;20727;-81
2024/03/13 01:35:35;;;;;;;80.20;33.45;;;;;;;3.92;95.64;100258.09;10169664;29;20059;-82
2024/03/13 01:57:12;;;;;;;74.10;31.77;;;;;;;3.85;95.20;100270.88;10155786;29;20111;-82
2024/03/13 02:02:25;;;;;;;75.38;30.95;;;;;;;3.80;95.37;100288.03;10173735;29;20063;-83
2024/03/13 02:07:30;;;;;;;79.53;32.03;;;;;;;3.80;95.45;100267.63;10177473;29;21113;-82
2024/03/13 02:12:33;;;;;;;72.45;31.92;;;;;;;3.75;95.37;100266.16;10174385;29;20072;-82
2024/03/13 02:17:38;;;;;;;79.55;33.22;;;;;;;3.62;96.26;100260.66;10174797;29;20058;-81
2024/03/13 02:22:43;;;;;;;79.22;33.00;;;;;;;3.64;95.95;100264.94;10178924;29;20056;-82
2024/03/13 02:27:51;;;;;;;81.38;31.05;;;;;;;3.64;95.49;100267.59;10168978;29;20054;-80
2024/03/13 02:32:55;;;;;;;68.40;30.42;;;;;;;3.62;95.46;100265.97;10152668;29;20086;-80
2024/03/13 02:37:59;;;;;;;76.65;30.95;;;;;;;3.59;95.56;100255.50;10156440;29;20086;-81
2024/03/13 02:43:02;;;;;;;75.25;32.35;;;;;;;3.54;95.51;100257.53;10149442;29;20522;-82
2024/03/13 02:48:06;;;;;;;73.20;31.20;;;;;;;3.49;95.68;100245.38;10158685;29;20431;-81
2024/03/13 02:53:10;;;;;;;76.13;32.88;;;;;;;3.47;96.03;100219.84;10155576;29;20118;-81
2024/03/13 02:58:13;;;;;;;84.55;32.35;;;;;;;3.40;95.85;100224.66;10138599;29;20445;-80
2024/03/13 03:03:16;;;;;;;77.95;31.55;;;;;;;3.41;95.79;100226.34;10156073;29;20114;-81
2024/03/13 03:08:20;;;;;;;71.20;29.98;;;;;;;3.40;95.63;100226.41;10158960;29;20096;-82
2024/03/13 03:13:23;;;;;;;74.10;30.85;;;;;;;3.40;95.62;100227.31;10134712;29;20165;-81
2024/03/13 03:18:26;;;;;;;77.18;32.40;;;;;;;3.39;96.04;100227.38;10157858;29;20055;-80
2024/03/13 03:23:29;;;;;;;70.85;30.38;;;;;;;3.40;96.04;100235.28;10145606;29;20207;-80
2024/03/13 03:28:32;;;;;;;72.53;29.92;;;;;;;3.41;95.82;100257.34;10139473;29;20500;-81
2024/03/13 03:33:37;;;;;;;73.25;30.70;;;;;;;3.41;96.00;100252.91;10165309;29;20056;-82
2024/03/13 03:38:40;;;;;;;71.45;30.40;;;;;;;3.39;95.55;100260.09;10168424;29;20423;-81
2024/03/13 03:43:44;;;;;;;73.18;31.15;;;;;;;3.30;96.04;100249.13;10166934;29;20059;-83
2024/03/13 03:48:47;;;;;;;69.55;29.90;;;;;;;3.31;97.04;100258.78;10159875;29;20058;-81
2024/03/13 03:53:50;;;;;;;68.00;28.98;;;;;;;3.45;96.95;100245.63;10170354;29;20044;-82
2024/03/13 03:58:54;;;;;;;68.50;29.58;;;;;;;3.49;97.49;100247.19;10178768;29;20047;-83
2024/03/13 04:03:58;;;;;;;68.72;28.50;;;;;;;3.55;96.79;100246.84;10143763;29;20043;-82
2024/03/13 04:09:14;;;;;;;73.20;32.28;;;;;;;3.61;96.48;100240.34;10151154;29;20052;-82
2024/03/13 04:14:18;;;;;;;71.90;31.77;;;;;;;3.61;96.78;100235.03;10167217;29;20142;-81
2024/03/13 04:19:21;;;;;;;76.32;29.80;;;;;;;3.68;96.23;100245.25;10158622;29;20151;-82
2024/03/13 04:24:24;;;;;;;70.57;30.15;;;;;;;3.78;96.34;100255.38;10135901;29;20058;-80
2024/03/13 04:29:27;;;;;;;68.55;28.25;;;;;;;3.92;95.58;100259.00;10156229;29;20044;-82
2024/03/13 04:34:45;;;;;;;69.57;29.00;;;;;;;4.01;94.78;100251.44;10144913;29;21144;-82
2024/03/13 04:39:48;;;;;;;67.47;28.77;;;;;;;4.01;94.60;100270.06;10150679;29;20043;-82
2024/03/13 04:44:51;;;;;;;70.43;27.75;;;;;;;4.01;94.37;100270.91;10168609;28;20079;-80
2024/03/13 04:49:54;;;;;;;66.68;29.00;;;;;;;4.09;94.10;100276.66;10172309;29;20135;-82
2024/03/13 04:54:57;;;;;;;62.72;27.27;;;;;;;4.04;94.11;100284.03;10144875;29;20067;-81
2024/03/13 05:00:00;;;;;;;66.82;28.23;;;;;;;3.90;94.87;100284.78;10154062;29;20082;-82
2024/03/13 05:05:04;;;;;;;73.88;29.67;;;;;;;3.92;95.12;100274.94;10138927;29;20585;-82
2024/03/13 05:10:07;;;;;;;67.53;29.83;;;;;;;3.92;95.13;100266.97;10137853;29;20075;-80
2024/03/13 05:15:12;;;;;;;73.53;30.55;;;;;;;4.05;94.92;100269.78;10140242;29;20077;-81
2024/03/13 05:20:17;;;;;;;71.28;30.40;;;;;;;3.82;96.65;100254.28;10137323;29;20542;-80
2024/03/13 05:25:22;;;;;;;72.82;30.92;;;;;;;3.93;95.77;100251.88;10158136;29;20119;-82
2024/03/13 05:30:25;;;;;;;69.38;28.73;;;;;;;4.02;95.14;100250.50;10155736;29;20082;-81
2024/03/13 05:35:28;;;;;;;63.97;27.75;;;;;;;4.18;94.84;100252.19;10158908;29;20856;-82
2024/03/13 05:40:31;;;;;;;73.22;32.33;;;;;;;4.15;95.10;100240.91;10154257;29;20056;-82
2024/03/13 05:45:34;;;;;;;64.93;26.98;;;;;;;4.36;93.95;100260.94;10149961;29;20050;-82
2024/03/13 05:50:38;;;;;;;61.65;29.45;;;;;;;4.39;93.58;100266.09;10135612;29;20511;-81
2024/03/13 05:55:42;;;;;;;65.10;27.90;;;;;;;4.50;92.79;100269.91;10151991;29;20371;-82
2024/03/13 06:00:45;;;;;;;59.55;26.55;;;;;;;4.65;91.61;100262.88;10160052;29;20134;-81
2024/03/13 06:05:48;;;;;;;54.70;24.23;;;;;;;4.66;91.13;100264.56;10129521;29;20524;-82
2024/03/13 06:10:51;;;;;;;66.45;26.83;;;;;;;4.55;91.33;100268.72;10160867;29;21549;-82
2024/03/13 06:15:55;;;;;;;54.13;25.13;;;;;;;4.68;91.49;100279.50;10149138;29;20067;-81
2024/03/13 06:20:58;;;;;;;57.83;25.90;;;;;;;4.74;91.32;100278.28;10149369;29;20597;-82
2024/03/13 06:26:01;;;;;;;55.85;25.25;;;;;;;4.73;91.25;100273.91;10171003;29;20043;-81
2024/03/13 06:31:04;;;;;;;50.28;24.23;;;;;;;4.89;90.72;100273.88;10155350;29;20718;-82
2024/03/13 06:36:07;;;;;;;56.20;25.92;;;;;;;5.02;90.32;100272.25;10160305;29;20711;-81
2024/03/13 06:41:10;;;;;;;55.00;24.25;;;;;;;5.04;90.21;100281.81;10160807;29;20060;-83
2024/03/13 06:46:13;;;;;;;48.67;23.20;;;;;;;5.16;89.84;100285.59;10162821;29;20138;-83
2024/03/13 06:51:16;;;;;;;52.50;23.48;;;;;;;5.37;89.04;100288.72;10143556;29;20062;-82
2024/03/13 06:56:19;;;;;;;46.92;23.65;;;;;;;5.31;88.56;100301.59;10171439;29;20095;-83
2024/03/13 07:01:23;;;;;;;45.10;23.23;;;;;;;5.47;88.23;100292.56;10143000;29;20048;-83
2024/03/13 07:06:26;;;;;;;47.88;22.30;;;;;;;5.54;87.81;100292.19;10155334;29;20067;-83
2024/03/13 07:11:30;;;;;;;46.90;20.15;;;;;;;5.68;87.48;100287.72;10160151;29;20154;-82
2024/03/13 07:16:33;;;;;;;46.33;21.80;;;;;;;5.66;87.49;100289.63;10132494;29;20090;-82
2024/03/13 07:21:38;;;;;;;44.03;21.90;;;;;;;5.77;87.83;100288.97;10163372;29;20131;-82
2024/03/13 07:26:45;;;;;;;50.97;21.45;;;;;;;5.97;87.29;100297.50;10159077;29;20058;-82
2024/03/13 07:31:48;;;;;;;44.25;19.95;;;;;;;6.01;87.23;100289.22;10158041;29;20043;-81
2024/03/13 07:36:51;;;;;;;21.98;11.15;;;;;;;6.22;88.36;100292.31;10155457;29;20050;-82
2024/03/13 07:41:54;;;;;;;53.15;22.73;;;;;;;6.67;88.35;100292.94;10135540;29;20047;-82
2024/03/13 07:46:58;;;;;;;39.10;19.42;;;;;;;7.03;85.89;100296.81;10127054;29;20048;-82
2024/03/13 07:52:02;;;;;;;37.42;19.77;;;;;;;6.93;83.45;100307.25;10150871;29;20048;-83
2024/03/13 07:57:05;;;;;;;35.65;19.00;;;;;;;6.93;83.23;100309.91;10159011;29;20075;-82
2024/03/13 08:02:09;;;;;;;37.50;19.42;;;;;;;6.94;83.68;100305.44;10136753;29;20059;-82
2024/03/13 08:07:12;;;;;;;34.35;19.92;;;;;;;6.93;84.27;100314.41;10151348;28;20055;-82
2024/03/13 08:12:32;;;;;;;38.63;19.08;;;;;;;6.91;84.82;100309.19;10131972;29;20052;-82
2024/03/13 08:17:53;;;;;;;34.53;18.88;;;;;;;7.11;85.13;100315.00;10149358;28;20055;-82
2024/03/13 08:23:14;;;;;;;32.10;17.48;;;;;;;7.22;84.41;100318.66;10152400;28;20422;-83
2024/03/13 08:28:35;;;;;;;33.38;18.02;;;;;;;7.43;84.45;100313.66;10175345;29;20055;-83
2024/03/13 08:33:57;;;;;;;33.90;18.45;;;;;;;7.49;84.53;100321.25;10148413;29;20550;-83
2024/03/13 08:39:25;;;;;;;32.78;17.60;;;;;;;7.69;84.39;100322.53;10154482;28;20051;-83
2024/03/13 08:44:47;;;;;;;35.85;18.48;;;;;;;7.66;85.74;100325.41;10154574;29;20052;-84
2024/03/13 08:50:07;;;;;;;37.40;18.50;;;;;;;7.73;86.27;100318.69;10163035;29;20495;-84
2024/03/13 08:55:32;;;;;;;32.47;18.38;;;;;;;8.01;85.33;100323.88;10168889;29;20058;-84
2024/03/13 09:00:55;;;;;;;34.50;18.05;;;;;;;8.13;85.70;100331.91;10157582;28;20412;-84
2024/03/13 09:06:15;;;;;;;31.60;17.20;;;;;;;8.34;85.27;100320.63;10161655;29;20405;-81
2024/03/13 09:11:18;;;;;;;27.17;15.63;;;;;;;8.59;85.02;100317.88;10135055;29;20049;-83
2024/03/13 09:16:22;;;;;;;25.75;13.48;;;;;;;8.65;85.39;100329.09;10139171;29;20056;-84
2024/03/13 09:21:25;;;;;;;22.88;10.60;;;;;;;8.66;86.80;100326.31;10150071;29;20047;-84
2024/03/13 09:26:29;;;;;;;17.13;9.27;;;;;;;8.67;88.57;100327.19;10138611;29;20055;-84
2024/03/13 09:31:33;;;;;;;14.95;7.43;;;;;;;8.76;90.30;100331.84;10139139;29;20048;-84
2024/03/13 09:36:36;;;;;;;16.33;8.35;;;;;;;8.78;90.30;100336.13;10146319;29;20054;-84
2024/03/13 09:41:40;;;;;;;13.90;6.53;;;;;;;8.81;91.14;100337.72;10140087;29;20847;-85
2024/03/13 09:46:43;;;;;;;17.40;8.07;;;;;;;8.77;92.29;100345.09;10139926;29;20122;-81
2024/03/13 09:51:46;;;;;;;13.00;7.13;;;;;;;8.83;92.04;100336.63;10155197;29;21198;-81
2024/03/13 09:56:49;;;;;;;16.50;8.00;;;;;;;8.81;94.56;100346.59;10140128;29;20480;-81
2024/03/13 10:01:52;;;;;;;13.88;8.13;;;;;;;9.01;94.78;100342.44;10158743;29;20504;-80
2024/03/13 10:06:56;;;;;;;13.98;8.15;;;;;;;9.11;96.92;100339.06;10146928;29;20145;-80
2024/03/13 10:12:00;;;;;;;13.60;8.43;;;;;;;8.90;100.00;100347.75;10150982;29;20123;-82
2024/03/13 10:17:03;;;;;;;13.50;7.55;;;;;;;9.12;100.00;100351.50;10150133;29;20106;-84
2024/03/13 10:22:07;;;;;;;16.73;9.05;;;;;;;9.12;100.00;100357.69;10146143;29;20047;-82
2024/03/13 10:27:10;;;;;;;12.00;7.82;;;;;;;9.20;99.72;100366.00;10164408;29;20209;-84
2024/03/13 10:32:16;;;;;;;13.40;8.20;;;;;;;9.12;100.00;100351.50;10164220;29;20059;-84
2024/03/13 10:37:19;;;;;;;13.80;7.85;;;;;;;9.18;100.00;100356.38;10154568;29;20968;-83
2024/03/13 10:42:22;;;;;;;16.65;9.23;;;;;;;9.06;100.00;100356.34;10166084;29;20055;-83
2024/03/13 10:47:27;;;;;;;16.05;9.60;;;;;;;9.11;100.00;100355.16;10156224;29;20044;-83
2024/03/13 10:52:30;;;;;;;18.25;10.50;;;;;;;8.86;100.00;100345.38;10159990;29;20519;-82
2024/03/13 10:57:36;;;;;;;16.40;9.00;;;;;;;8.98;100.00;100349.84;10166785;29;20058;-82
2024/03/13 11:02:39;;;;;;;17.95;9.65;;;;;;;8.89;100.00;100354.06;10154911;29;20054;-83
2024/03/13 11:07:43;;;;;;;18.48;9.77;;;;;;;9.03;100.00;100351.22;10161354;29;20694;-82
2024/03/13 11:12:46;;;;;;;18.10;9.70;;;;;;;9.27;100.00;100356.56;10145791;29;20503;-83
2024/03/13 11:17:51;;;;;;;15.70;8.68;;;;;;;9.34;100.00;100359.59;10139098;29;20419;-82
2024/03/13 11:22:55;;;;;;;14.48;8.35;;;;;;;9.40;100.00;100358.28;10167637;29;20183;-82
2024/03/13 11:27:58;;;;;;;13.80;7.97;;;;;;;9.55;100.00;100358.94;10165566;29;20058;-82
2024/03/13 11:33:02;;;;;;;14.27;8.13;;;;;;;9.51;100.00;100348.44;10159769;29;20059;-83
2024/03/13 11:38:05;;;;;;;14.75;7.50;;;;;;;9.65;100.00;100349.19;10149638;29;20043;-81
2024/03/13 11:43:09;;;;;;;12.65;7.00;;;;;;;9.72;100.00;100350.44;10148481;29;20052;-83
2024/03/13 11:48:15;;;;;;;11.90;7.13;;;;;;;9.82;100.00;100342.50;10158416;29;20056;-83
2024/03/13 11:53:19;;;;;;;7.47;5.28;;;;;;;9.66;100.00;100338.34;10163804;29;20135;-82
2024/03/13 11:58:22;;;;;;;10.93;6.68;;;;;;;9.67;100.00;100339.22;10176470;29;20059;-83
2024/03/13 12:03:30;;;;;;;9.93;7.68;;;;;;;9.68;100.00;100327.50;10156430;29;20056;-82
2024/03/13 12:08:34;;;;;;;11.63;7.78;;;;;;;9.79;100.00;100318.59;10161214;29;20054;-81
2024/03/13 12:13:38;;;;;;;12.55;7.70;;;;;;;9.80;100.00;100325.69;10180142;29;20055;-83
2024/03/13 12:18:44;;;;;;;14.25;8.32;;;;;;;9.99;100.00;100312.56;10162361;29;20047;-81
2024/03/13 12:23:48;;;;;;;10.65;7.95;;;;;;;9.73;100.00;100320.78;10165233;29;20053;-83
2024/03/13 12:28:54;;;;;;;12.32;8.48;;;;;;;10.00;100.00;100311.56;10159100;29;20130;-83
2024/03/13 12:33:58;;;;;;;12.82;8.77;;;;;;;10.01;100.00;100307.06;10173874;29;20118;-82
2024/03/13 12:39:01;;;;;;;12.82;8.93;;;;;;;10.37;100.00;100303.25;10132867;29;20054;-81
2024/03/13 12:44:05;;;;;;;13.57;9.07;;;;;;;10.54;100.00;100299.19;10145531;29;22030;-80
2024/03/13 12:49:12;;;;;;;13.35;9.50;;;;;;;10.48;100.00;100299.69;10140668;29;20060;-80
2024/03/13 12:54:17;;;;;;;14.00;9.88;;;;;;;10.44;100.00;100292.84;10140557;29;20139;-83
2024/03/13 12:59:22;;;;;;;15.45;11.07;;;;;;;10.50;100.00;100289.66;10153604;29;20077;-82
2024/03/13 13:04:25;;;;;;;16.80;10.55;;;;;;;10.05;100.00;100301.31;10155637;29;20051;-82
2024/03/13 13:09:29;;;;;;;18.02;10.18;;;;;;;10.38;100.00;100292.38;10135728;29;20521;-81
2024/03/13 13:14:32;;;;;;;20.23;11.35;;;;;;;10.47;100.00;100287.22;10145019;29;20538;-83
2024/03/13 13:19:35;;;;;;;20.77;12.60;;;;;;;10.49;100.00;100291.50;10152741;29;21654;-83
2024/03/13 13:24:38;;;;;;;20.00;12.65;;;;;;;10.65;100.00;100283.03;10149625;29;20040;-82
2024/03/13 13:29:41;;;;;;;20.73;13.25;;;;;;;10.73;100.00;100285.94;10146325;29;20048;-81
2024/03/13 13:34:50;;;;;;;20.67;12.07;;;;;;;10.69;100.00;100286.31;10153174;29;20048;-82
2024/03/13 13:39:54;;;;;;;20.17;10.98;;;;;;;10.19;100.00;100300.22;10142209;29;20071;-83
2024/03/13 13:44:57;;;;;;;22.60;12.63;;;;;;;10.58;100.00;100288.03;10149876;29;20052;-84
2024/03/13 13:50:00;;;;;;;21.23;13.57;;;;;;;10.67;100.00;100288.25;10136970;29;20051;-83
2024/03/13 13:55:03;;;;;;;23.45;13.82;;;;;;;10.81;100.00;100294.19;10149040;29;20059;-83
2024/03/13 14:00:11;;;;;;;25.75;13.52;;;;;;;10.86;100.00;100295.63;10149574;29;20052;-83
2024/03/13 14:05:16;;;;;;;26.25;14.23;;;;;;;10.83;100.00;100304.81;10145309;29;20059;-83
2024/03/13 14:10:20;;;;;;;25.95;15.60;;;;;;;10.72;100.00;100303.00;10178703;29;20511;-85
2024/03/13 14:15:24;;;;;;;25.27;15.55;;;;;;;10.66;100.00;100305.38;10167988;29;20050;-84
2024/03/13 14:20:27;;;;;;;32.08;17.38;;;;;;;10.52;100.00;100311.88;10155827;29;20094;-84
2024/03/13 14:25:30;;;;;;;36.30;17.90;;;;;;;10.59;100.00;100311.25;10161078;29;20063;-84
2024/03/13 14:30:33;;;;;;;32.30;16.23;;;;;;;10.33;100.00;100317.88;10150786;29;20142;-84
2024/03/13 14:35:36;;;;;;;33.03;18.02;;;;;;;10.23;100.00;100312.44;10170258;29;20051;-82
2024/03/13 14:40:39;;;;;;;33.20;18.08;;;;;;;10.24;100.00;100319.50;10139748;29;21143;-84
2024/03/13 14:45:43;;;;;;;32.20;17.90;;;;;;;10.53;100.00;100318.94;10136736;29;20055;-82
2024/03/13 14:50:47;;;;;;;36.65;18.48;;;;;;;10.50;100.00;100317.34;10165780;29;20044;-84
2024/03/13 14:55:52;;;;;;;37.05;18.52;;;;;;;10.27;100.00;100326.44;10150384;29;20062;-83
2024/03/13 15:00:55;;;;;;;35.90;15.65;;;;;;;10.07;100.00;100320.84;10153636;29;20059;-82
2024/03/13 15:05:59;;;;;;;43.38;20.77;;;;;;;10.16;100.00;100311.22;10147897;29;20059;-84
2024/03/13 15:11:03;;;;;;;58.33;24.98;;;;;;;9.89;100.00;100312.41;10137965;29;20099;-84
2024/03/13 15:16:07;;;;;;;58.65;25.20;;;;;;;10.15;100.00;100321.09;10133852;29;20044;-83
2024/03/13 15:21:10;;;;;;;74.95;27.42;;;;;;;10.20;100.00;100309.13;10132430;29;20048;-83
2024/03/13 15:26:13;;;;;;;76.70;31.95;;;;;;;10.10;100.00;100317.91;10164683;29;20111;-84
2024/03/13 15:31:17;;;;;;;79.50;30.95;;;;;;;10.22;100.00;100324.13;10165039;29;20107;-84
2024/03/13 15:36:20;;;;;;;86.68;33.78;;;;;;;10.03;100.00;100318.53;10153385;28;20145;-84
2024/03/13 15:41:23;;;;;;;86.28;37.00;;;;;;;9.81;100.00;100314.81;10148876;29;20743;-83
2024/03/13 15:46:26;;;;;;;84.95;35.05;;;;;;;10.00;100.00;100313.41;10160526;29;20063;-82
2024/03/13 15:51:29;;;;;;;80.85;31.45;;;;;;;10.07;100.00;100309.28;10165813;29;20043;-83
2024/03/13 15:56:33;;;;;;;77.43;30.83;;;;;;;10.20;100.00;100309.97;10167149;29;20051;-83
2024/03/13 16:01:36;;;;;;;70.25;29.20;;;;;;;10.11;100.00;100310.72;10148045;29;20051;-83
2024/03/13 16:06:39;;;;;;;56.30;25.40;;;;;;;9.80;100.00;100314.97;10161213;29;20187;-82
2024/03/13 16:11:44;;;;;;;55.67;23.88;;;;;;;10.20;100.00;100309.97;10156060;28;20115;-82
2024/03/13 16:16:48;;;;;;;65.53;28.08;;;;;;;10.27;100.00;100315.72;10165523;29;20051;-82
2024/03/13 16:21:51;;;;;;;64.57;26.58;;;;;;;10.00;100.00;100321.47;10156238;29;20068;-82
2024/03/13 16:26:54;;;;;;;62.67;26.35;;;;;;;10.19;100.00;100308.28;10140778;29;20055;-82
2024/03/13 16:31:58;;;;;;;62.60;25.48;;;;;;;10.08;100.00;100316.34;10157893;29;20077;-82
2024/03/13 16:37:01;;;;;;;49.17;20.55;;;;;;;9.94;100.00;100322.81;10155779;29;20689;-82
2024/03/13 16:42:04;;;;;;;44.92;19.70;;;;;;;9.81;100.00;100332.75;10156751;29;20055;-83
2024/03/13 16:47:08;;;;;;;39.53;18.02;;;;;;;9.76;100.00;100332.25;10164836;29;20059;-81
2024/03/13 16:52:12;;;;;;;39.17;18.10;;;;;;;9.84;100.00;100340.56;10154133;29;20059;-80
2024/03/13 16:57:16;;;;;;;38.78;18.38;;;;;;;9.63;100.00;100335.06;10152812;29;20056;-81
2024/03/13 17:02:19;;;;;;;37.25;17.60;;;;;;;9.81;100.00;100344.34;10136031;29;20054;-80
2024/03/13 17:07:22;;;;;;;37.60;17.00;;;;;;;9.84;100.00;100352.13;10152349;29;20131;-81
2024/03/13 17:12:28;;;;;;;34.08;14.25;;;;;;;9.58;100.00;100366.75;10176889;29;20051;-81
2024/03/13 17:17:31;;;;;;;36.47;16.80;;;;;;;9.36;100.00;100368.38;10162596;29;20051;-81
2024/03/13 17:22:34;;;;;;;41.25;17.67;;;;;;;9.82;100.00;100372.91;10165927;29;20154;-81
2024/03/13 17:27:39;;;;;;;38.10;16.27;;;;;;;9.77;100.00;100382.28;10172577;29;20138;-81
2024/03/13 17:32:42;;;;;;;30.35;13.23;;;;;;;9.73;100.00;100384.31;10164899;29;20162;-81
2024/03/13 17:37:48;;;;;;;40.38;16.92;;;;;;;9.66;100.00;100388.47;10152505;29;20047;-80
2024/03/13 17:42:51;;;;;;;37.13;17.98;;;;;;;9.99;100.00;100381.47;10176264;29;20047;-81
2024/03/13 17:47:56;;;;;;;42.45;19.77;;;;;;;9.76;100.00;100392.13;10172104;29;20044;-82
2024/03/13 17:53:02;;;;;;;43.00;19.00;;;;;;;9.51;100.00;100387.81;10181447;29;20059;-82
2024/03/13 17:58:06;;;;;;;39.50;18.02;;;;;;;9.84;100.00;100397.75;10150824;29;20044;-82
2024/03/13 18:03:10;;;;;;;45.03;20.98;;;;;;;9.96;100.00;100397.81;10148221;29;20051;-82
2024/03/13 18:08:14;;;;;;;38.90;19.00;;;;;;;9.99;100.00;100405.63;10158030;29;20078;-82
2024/03/13 18:13:18;;;;;;;46.63;21.27;;;;;;;10.09;100.00;100406.59;10162601;29;20051;-82
2024/03/13 18:18:24;;;;;;;41.90;19.55;;;;;;;10.05;100.00;100406.00;10144644;29;21148;-81
2024/03/13 18:23:30;;;;;;;43.80;20.67;;;;;;;10.21;100.00;100415.53;10150596;29;20054;-80
2024/03/13 18:28:33;;;;;;;42.40;20.85;;;;;;;10.26;100.00;100414.19;10196270;29;20059;-79
2024/03/13 18:33:36;;;;;;;50.42;21.88;;;;;;;10.23;100.00;100421.63;10180144;29;20056;-82
2024/03/13 18:38:39;;;;;;;51.75;22.10;;;;;;;10.20;100.00;100416.50;10153738;29;20051;-82
2024/03/13 18:43:42;;;;;;;46.33;20.13;;;;;;;9.94;100.00;100424.75;10159549;29;20055;-82
2024/03/13 18:48:46;;;;;;;52.10;24.27;;;;;;;10.23;100.00;100424.31;10161069;29;20526;-83
2024/03/13 18:53:51;;;;;;;54.78;23.45;;;;;;;10.14;100.00;100417.84;10146416;29;20048;-82
2024/03/13 18:58:54;;;;;;;50.67;24.52;;;;;;;10.04;100.00;100423.09;10155084;29;20129;-83
2024/03/13 19:03:57;;;;;;;59.85;25.02;;;;;;;10.17;100.00;100418.47;10163244;29;20051;-83
2024/03/13 19:09:00;;;;;;;52.78;25.90;;;;;;;10.20;100.00;100421.84;10162509;29;20067;-82
2024/03/13 19:14:04;;;;;;;58.63;25.05;;;;;;;9.99;100.00;100424.41;10153427;29;20095;-80
2024/03/13 19:19:07;;;;;;;60.75;27.73;;;;;;;10.19;100.00;100418.31;10156707;29;20051;-84
2024/03/13 19:24:14;;;;;;;61.15;29.13;;;;;;;10.25;100.00;100423.22;10163121;29;20062;-83
2024/03/13 19:29:17;;;;;;;69.57;30.13;;;;;;;10.25;100.00;100415.16;10143607;28;20292;-82
2024/03/13 19:34:21;;;;;;;74.32;33.17;;;;;;;10.30;100.00;100417.47;10153149;28;20415;-83
2024/03/13 19:39:24;;;;;;;64.82;28.85;;;;;;;10.10;100.00;100422.59;10180968;28;20054;-81
2024/03/13 19:44:28;;;;;;;64.45;33.20;;;;;;;10.16;100.00;100411.38;10159865;29;20047;-79
2024/03/13 19:49:31;;;;;;;65.90;32.58;;;;;;;10.25;100.00;100425.03;10178293;29;20078;-81
2024/03/13 19:54:34;;;;;;;66.43;30.35;;;;;;;10.34;100.00;100411.75;10185742;29;20059;-81
2024/03/13 19:59:38;;;;;;;71.85;33.88;;;;;;;10.47;100.00;100410.75;10148195;29;21176;-83
2024/03/13 20:04:42;;;;;;;66.60;31.45;;;;;;;10.28;100.00;100411.38;10161030;29;20152;-82
2024/03/13 20:09:45;;;;;;;64.80;29.80;;;;;;;10.25;100.00;100407.09;10145825;29;20052;-82
2024/03/13 20:14:48;;;;;;;61.42;30.98;;;;;;;10.42;100.00;100399.53;10153586;29;20036;-83
2024/03/13 20:19:53;;;;;;;65.22;31.02;;;;;;;10.43;100.00;100399.41;10141572;29;20043;-83
2024/03/13 20:24:56;;;;;;;55.10;27.30;;;;;;;10.31;100.00;100398.56;10146356;29;20048;-83
2024/03/13 20:29:59;;;;;;;54.63;28.05;;;;;;;10.43;100.00;100407.47;10175148;29;20663;-83
2024/03/13 20:35:03;;;;;;;44.60;22.48;;;;;;;10.24;100.00;100408.09;10149183;29;20046;-82
2024/03/13 20:40:12;;;;;;;50.70;24.90;;;;;;;10.41;100.00;100411.25;10154770;29;20051;-83
2024/03/13 20:45:15;;;;;;;44.55;23.90;;;;;;;10.50;100.00;100410.50;10160163;29;20051;-81
2024/03/13 20:50:18;;;;;;;48.78;23.85;;;;;;;10.52;100.00;100412.09;10171661;28;20052;-82
2024/03/13 20:55:22;;;;;;;41.28;21.40;;;;;;;10.45;100.00;100405.53;10146386;29;20074;-82
2024/03/13 21:00:27;;;;;;;44.03;22.70;;;;;;;10.62;100.00;100406.84;10161085;29;20043;-83
2024/03/13 21:05:31;;;;;;;42.10;22.05;;;;;;;10.49;100.00;100404.28;10161763;28;20055;-82
2024/03/13 21:10:34;;;;;;;39.85;22.27;;;;;;;10.59;100.00;100402.56;10136060;29;20059;-82
2024/03/13 21:15:37;;;;;;;40.22;21.88;;;;;;;10.67;100.00;100401.09;10140672;29;20062;-82
2024/03/13 21:20:55;;;;;;;39.60;20.52;;;;;;;10.68;100.00;100402.81;10145269;29;20074;-82
2024/03/13 21:25:58;;;;;;;35.67;20.73;;;;;;;10.60;100.00;100396.22;10151211;29;20165;-83
2024/03/13 21:31:01;;;;;;;38.00;19.80;;;;;;;10.71;100.00;100397.19;10145714;29;20133;-82
2024/03/13 21:36:04;;;;;;;32.13;18.02;;;;;;;10.71;100.00;100391.81;10139390;29;20056;-81
2024/03/13 21:41:10;;;;;;;32.22;18.08;;;;;;;10.69;100.00;100385.69;10161597;29;20123;-82
2024/03/13 21:46:13;;;;;;;31.50;18.98;;;;;;;10.75;100.00;100394.13;10153506;29;20074;-81
2024/03/13 21:51:17;;;;;;;36.63;19.50;;;;;;;10.59;100.00;100401.72;10144988;29;20116;-82
2024/03/13 21:56:20;;;;;;;35.70;20.10;;;;;;;10.75;100.00;100379.81;10148528;29;21133;-84
2024/03/13 22:01:24;;;;;;;34.95;19.33;;;;;;;10.72;100.00;100383.59;10145764;29;20058;-81
2024/03/13 22:06:27;;;;;;;31.90;18.13;;;;;;;10.56;100.00;100381.34;10149865;29;20063;-82
2024/03/13 22:11:30;;;;;;;31.17;18.70;;;;;;;10.38;100.00;100386.34;10131091;29;20052;-82
2024/03/13 22:16:33;;;;;;;29.92;17.15;;;;;;;10.33;100.00;100390.38;10133819;29;20103;-82
2024/03/13 22:21:36;;;;;;;24.50;15.15;;;;;;;10.49;100.00;100382.81;10140728;29;20052;-81
2024/03/13 22:26:39;;;;;;;27.00;16.60;;;;;;;10.73;100.00;100377.28;10122606;29;20060;-83
2024/03/13 22:31:42;;;;;;;25.15;15.13;;;;;;;10.64;100.00;100390.59;10143632;29;20528;-82
2024/03/13 22:36:45;;;;;;;25.13;14.90;;;;;;;10.54;100.00;100372.53;10134652;29;20468;-81
2024/03/13 22:41:49;;;;;;;22.13;15.10;;;;;;;10.80;100.00;100373.09;10154914;29;20064;-82
2024/03/13 22:46:52;;;;;;;24.35;15.00;;;;;;;10.61;100.00;100379.16;10149426;29;20043;-82
2024/03/13 22:51:55;;;;;;;26.55;15.63;;;;;;;10.65;100.00;100362.78;10132937;29;20060;-82
2024/03/13 22:56:58;;;;;;;24.55;14.90;;;;;;;10.70;100.00;100361.41;10141067;29;20051;-82
2024/03/13 23:02:01;;;;;;;22.77;14.95;;;;;;;10.69;100.00;100367.75;10176722;29;20652;-80
2024/03/13 23:07:04;;;;;;;23.80;16.13;;;;;;;10.67;100.00;100372.41;10176234;29;20140;-81